createdAt,value
2023-04-29T00:00:21.659Z,1.41
2023-04-29T00:01:24.242Z,1.30
2023-04-29T00:02:27.637Z,1.55
2023-04-29T00:03:31.228Z,1.58
2023-04-29T00:04:34.079Z,1.37
2023-04-29T00:05:36.983Z,1.29
2023-04-29T00:06:39.649Z,1.20
2023-04-29T00:07:42.213Z,1.27
2023-04-29T00:08:44.781Z,1.66
2023-04-29T00:09:47.353Z,1.19
2023-04-29T00:10:49.911Z,1.23
2023-04-29T00:11:52.468Z,1.71
2023-04-29T00:12:55.036Z,1.36
2023-04-29T00:13:57.486Z,1.39
2023-04-29T00:15:00.053Z,1.42
2023-04-29T00:16:02.700Z,1.33
2023-04-29T00:17:05.382Z,1.59
2023-04-29T00:18:08.158Z,1.25
2023-04-29T00:19:11.250Z,1.12
2023-04-29T00:20:14.346Z,1.32
2023-04-29T00:21:16.898Z,1.11
2023-04-29T00:22:19.477Z,1.19
2023-04-29T00:23:22.069Z,0.98
2023-04-29T00:24:24.612Z,1.13
2023-04-29T00:25:27.168Z,1.33
2023-04-29T00:26:29.929Z,1.33
2023-04-29T00:27:32.490Z,1.13
2023-04-29T00:28:35.053Z,1.28
2023-04-29T00:29:37.660Z,1.49
2023-04-29T00:30:40.463Z,1.02
2023-04-29T00:31:43.021Z,1.17
2023-04-29T00:32:45.620Z,1.30
2023-04-29T00:33:48.422Z,1.00
2023-04-29T00:34:50.981Z,1.16
2023-04-29T00:35:53.576Z,1.10
2023-04-29T00:36:56.342Z,0.98
2023-04-29T00:37:58.908Z,0.96
2023-04-29T00:39:01.467Z,0.97
2023-04-29T00:40:04.011Z,1.40
2023-04-29T00:41:06.584Z,1.03
2023-04-29T00:42:09.141Z,1.13
2023-04-29T00:43:11.693Z,1.19
2023-04-29T00:44:14.238Z,1.31
2023-04-29T00:45:16.804Z,1.25
2023-04-29T00:46:19.371Z,1.69
2023-04-29T00:47:22.157Z,1.11
2023-04-29T00:48:24.715Z,0.85
2023-04-29T00:49:27.276Z,0.94
2023-04-29T00:50:30.140Z,0.99
2023-04-29T00:51:32.732Z,1.15
2023-04-29T00:52:35.297Z,1.34
2023-04-29T00:53:37.689Z,1.01
2023-04-29T00:54:40.544Z,1.29
2023-04-29T00:55:43.139Z,1.11
2023-04-29T00:56:45.940Z,0.89
2023-04-29T00:57:48.492Z,1.09
2023-04-29T00:58:51.050Z,1.17
2023-04-29T00:59:53.926Z,1.12
2023-04-29T01:00:57.245Z,1.12
2023-04-29T01:01:59.920Z,1.25
2023-04-29T01:03:02.917Z,1.04
2023-04-29T01:04:05.714Z,0.94
2023-04-29T01:05:08.961Z,0.98
2023-04-29T01:06:11.716Z,1.24
2023-04-29T01:07:14.285Z,1.11
2023-04-29T01:08:18.390Z,1.27
2023-04-29T01:09:21.190Z,1.44
2023-04-29T01:10:23.941Z,1.36
2023-04-29T01:11:26.502Z,1.16
2023-04-29T01:12:29.069Z,0.92
2023-04-29T01:13:31.646Z,1.00
2023-04-29T01:14:34.229Z,1.26
2023-04-29T01:15:36.809Z,0.82
2023-04-29T01:16:39.941Z,0.92
2023-04-29T01:17:42.585Z,0.89
2023-04-29T01:18:45.126Z,0.65
2023-04-29T01:19:47.703Z,1.00
2023-04-29T01:20:50.255Z,1.05
2023-04-29T01:21:52.841Z,1.03
2023-04-29T01:22:55.400Z,0.86
2023-04-29T01:23:57.959Z,1.01
2023-04-29T01:25:00.523Z,0.92
2023-04-29T01:26:03.384Z,1.41
2023-04-29T01:27:05.969Z,0.91
2023-04-29T01:28:08.526Z,1.01
2023-04-29T01:29:10.986Z,1.01
2023-04-29T01:30:14.657Z,1.17
2023-04-29T01:31:17.241Z,0.81
2023-04-29T01:32:19.793Z,0.69
2023-04-29T01:33:22.452Z,1.07
2023-04-29T01:34:25.033Z,0.80
2023-04-29T01:35:27.601Z,0.74
2023-04-29T01:36:30.407Z,0.95
2023-04-29T01:37:32.919Z,0.97
2023-04-29T01:38:35.584Z,0.94
2023-04-29T01:39:38.128Z,0.76
2023-04-29T01:40:41.034Z,0.79
2023-04-29T01:41:43.581Z,0.95
2023-04-29T01:42:46.074Z,0.85
2023-04-29T01:43:48.582Z,0.71
2023-04-29T01:44:51.156Z,0.67
2023-04-29T01:45:53.722Z,0.95
2023-04-29T01:46:56.554Z,0.85
2023-04-29T01:47:59.168Z,1.01
2023-04-29T01:49:01.790Z,0.85
2023-04-29T01:50:04.486Z,0.69
2023-04-29T01:51:07.075Z,0.94
2023-04-29T01:52:09.592Z,0.86
2023-04-29T01:53:12.158Z,0.89
2023-04-29T01:54:14.699Z,0.80
2023-04-29T01:55:17.254Z,0.71
2023-04-29T01:56:19.792Z,0.83
2023-04-29T01:57:22.354Z,1.01
2023-04-29T01:58:24.892Z,0.98
2023-04-29T01:59:28.811Z,1.19
2023-04-29T02:00:32.058Z,0.76
2023-04-29T02:01:34.631Z,0.97
2023-04-29T02:02:37.344Z,0.99
2023-04-29T02:03:40.299Z,0.98
2023-04-29T02:04:43.154Z,0.93
2023-04-29T02:05:46.021Z,0.71
2023-04-29T02:06:48.686Z,0.79
2023-04-29T02:07:51.276Z,0.76
2023-04-29T02:08:53.836Z,0.69
2023-04-29T02:09:56.397Z,0.78
2023-04-29T02:10:59.406Z,0.67
2023-04-29T02:12:01.972Z,0.74
2023-04-29T02:13:04.512Z,0.70
2023-04-29T02:14:07.082Z,0.95
2023-04-29T02:15:09.675Z,0.70
2023-04-29T02:16:12.505Z,0.61
2023-04-29T02:17:15.118Z,0.58
2023-04-29T02:18:17.698Z,0.65
2023-04-29T02:19:20.327Z,0.79
2023-04-29T02:20:23.410Z,0.57
2023-04-29T02:21:25.964Z,0.50
2023-04-29T02:22:28.720Z,1.33
2023-04-29T02:23:31.281Z,0.68
2023-04-29T02:24:33.884Z,0.70
2023-04-29T02:25:36.745Z,0.67
2023-04-29T02:26:39.436Z,0.60
2023-04-29T02:27:41.980Z,1.61
2023-04-29T02:28:44.535Z,0.49
2023-04-29T02:29:47.082Z,0.57
2023-04-29T02:30:49.733Z,0.57
2023-04-29T02:31:52.338Z,0.47
2023-04-29T02:32:55.173Z,0.60
2023-04-29T02:33:57.689Z,0.75
2023-04-29T02:35:00.261Z,0.59
2023-04-29T02:36:03.151Z,0.61
2023-04-29T02:37:05.702Z,0.51
2023-04-29T02:38:08.313Z,0.62
2023-04-29T02:39:10.870Z,0.69
2023-04-29T02:40:13.424Z,0.58
2023-04-29T02:41:16.216Z,0.57
2023-04-29T02:42:18.725Z,0.56
2023-04-29T02:43:21.281Z,0.57
2023-04-29T02:44:23.738Z,0.55
2023-04-29T02:45:26.321Z,0.87
2023-04-29T02:46:29.099Z,0.60
2023-04-29T02:47:31.915Z,0.60
2023-04-29T02:48:34.756Z,0.56
2023-04-29T02:49:37.220Z,0.53
2023-04-29T02:50:39.829Z,0.48
2023-04-29T02:51:42.377Z,0.55
2023-04-29T02:52:44.965Z,0.75
2023-04-29T02:53:47.575Z,0.57
2023-04-29T02:54:49.971Z,0.73
2023-04-29T02:55:52.517Z,0.57
2023-04-29T02:56:55.317Z,0.66
2023-04-29T02:57:57.775Z,0.63
2023-04-29T02:59:00.333Z,0.53
2023-04-29T03:00:03.019Z,0.51
2023-04-29T03:01:05.591Z,0.59
2023-04-29T03:02:08.344Z,0.57
2023-04-29T03:03:11.077Z,0.59
2023-04-29T03:04:14.033Z,0.66
2023-04-29T03:05:16.694Z,0.61
2023-04-29T03:06:19.271Z,0.74
2023-04-29T03:07:21.730Z,0.60
2023-04-29T03:08:24.315Z,0.57
2023-04-29T03:09:26.883Z,0.63
2023-04-29T03:10:29.646Z,0.51
2023-04-29T03:11:32.255Z,0.98
2023-04-29T03:12:34.779Z,1.98
2023-04-29T03:13:37.332Z,0.79
2023-04-29T03:14:39.902Z,0.75
2023-04-29T03:15:42.421Z,0.66
2023-04-29T03:16:45.451Z,0.47
2023-04-29T03:17:48.060Z,1.01
2023-04-29T03:18:50.608Z,0.83
2023-04-29T03:19:53.302Z,0.65
2023-04-29T03:20:56.122Z,0.83
2023-04-29T03:21:58.684Z,0.99
2023-04-29T03:23:01.339Z,1.01
2023-04-29T03:24:03.802Z,0.75
2023-04-29T03:25:06.395Z,1.07
2023-04-29T03:26:09.211Z,0.88
2023-04-29T03:27:12.030Z,1.20
2023-04-29T03:28:14.645Z,1.45
2023-04-29T03:29:17.177Z,1.17
2023-04-29T03:30:20.041Z,1.16
2023-04-29T03:31:22.682Z,1.42
2023-04-29T03:32:25.317Z,1.39
2023-04-29T03:33:28.119Z,1.09
2023-04-29T03:34:30.667Z,1.46
2023-04-29T03:35:33.225Z,1.39
2023-04-29T03:36:36.310Z,1.47
2023-04-29T03:37:38.914Z,1.48
2023-04-29T03:38:41.536Z,1.31
2023-04-29T03:39:44.023Z,1.30
2023-04-29T03:40:46.570Z,1.59
2023-04-29T03:41:49.025Z,1.61
2023-04-29T03:42:51.711Z,1.45
2023-04-29T03:43:54.264Z,1.36
2023-04-29T03:44:56.835Z,1.29
2023-04-29T03:45:59.384Z,1.07
2023-04-29T03:47:02.115Z,1.32
2023-04-29T03:48:04.689Z,1.11
2023-04-29T03:49:07.210Z,1.68
2023-04-29T03:50:09.975Z,1.32
2023-04-29T03:51:12.547Z,1.45
2023-04-29T03:52:15.112Z,1.31
2023-04-29T03:53:17.679Z,1.07
2023-04-29T03:54:20.141Z,0.98
2023-04-29T03:55:22.711Z,0.96
2023-04-29T03:56:25.582Z,1.11
2023-04-29T03:57:28.136Z,1.07
2023-04-29T03:58:30.701Z,0.90
2023-04-29T03:59:33.253Z,0.95
2023-04-29T04:00:35.939Z,1.00
2023-04-29T04:01:38.613Z,1.17
2023-04-29T04:02:41.395Z,1.20
2023-04-29T04:03:44.325Z,1.07
2023-04-29T04:04:47.453Z,0.80
2023-04-29T04:05:50.272Z,0.94
2023-04-29T04:06:52.834Z,0.69
2023-04-29T04:07:55.767Z,0.84
2023-04-29T04:08:58.319Z,0.99
2023-04-29T04:10:00.947Z,1.02
2023-04-29T04:11:03.567Z,0.67
2023-04-29T04:12:06.030Z,0.68
2023-04-29T04:13:08.603Z,0.70
2023-04-29T04:14:11.211Z,0.60
2023-04-29T04:15:13.782Z,0.71
2023-04-29T04:16:16.406Z,0.88
2023-04-29T04:17:18.918Z,0.93
2023-04-29T04:18:21.479Z,0.88
2023-04-29T04:19:24.030Z,0.53
2023-04-29T04:20:26.683Z,0.70
2023-04-29T04:21:29.276Z,0.64
2023-04-29T04:22:31.833Z,0.63
2023-04-29T04:23:34.377Z,0.79
2023-04-29T04:24:36.938Z,0.68
2023-04-29T04:25:39.501Z,0.55
2023-04-29T04:26:42.332Z,0.53
2023-04-29T04:27:44.870Z,0.56
2023-04-29T04:28:47.438Z,0.60
2023-04-29T04:29:50.141Z,0.79
2023-04-29T04:30:53.391Z,0.82
2023-04-29T04:31:55.994Z,0.57
2023-04-29T04:32:58.732Z,0.55
2023-04-29T04:34:01.674Z,0.49
2023-04-29T04:35:04.252Z,0.60
2023-04-29T04:36:07.014Z,0.55
2023-04-29T04:37:09.564Z,0.56
2023-04-29T04:38:12.118Z,0.71
2023-04-29T04:39:14.677Z,0.50
2023-04-29T04:40:17.436Z,0.30
2023-04-29T04:41:20.102Z,0.44
2023-04-29T04:42:22.693Z,0.63
2023-04-29T04:43:25.263Z,0.49
2023-04-29T04:44:27.748Z,0.47
2023-04-29T04:45:30.378Z,0.51
2023-04-29T04:46:33.364Z,0.38
2023-04-29T04:47:35.942Z,0.52
2023-04-29T04:48:38.512Z,0.44
2023-04-29T04:49:41.028Z,0.55
2023-04-29T04:50:43.780Z,0.51
2023-04-29T04:51:46.349Z,0.49
2023-04-29T04:52:48.906Z,0.51
2023-04-29T04:53:51.468Z,0.33
2023-04-29T04:54:54.023Z,0.39
2023-04-29T04:55:56.606Z,0.39
2023-04-29T04:56:59.499Z,0.92
2023-04-29T04:58:02.060Z,0.55
2023-04-29T04:59:04.643Z,0.88
2023-04-29T05:00:07.805Z,0.82
2023-04-29T05:01:10.326Z,0.99
2023-04-29T05:02:13.498Z,0.80
2023-04-29T05:03:16.228Z,0.82
2023-04-29T05:04:19.227Z,0.67
2023-04-29T05:05:21.778Z,0.53
2023-04-29T05:06:24.438Z,0.59
2023-04-29T05:07:27.001Z,0.50
2023-04-29T05:08:29.545Z,0.50
2023-04-29T05:09:32.106Z,0.78
2023-04-29T05:10:34.761Z,0.47
2023-04-29T05:11:37.352Z,0.34
2023-04-29T05:12:40.082Z,0.40
2023-04-29T05:13:42.665Z,0.37
2023-04-29T05:14:45.213Z,0.53
2023-04-29T05:15:47.763Z,0.49
2023-04-29T05:16:50.551Z,0.50
2023-04-29T05:17:53.329Z,0.30
2023-04-29T05:18:56.121Z,0.56
2023-04-29T05:19:58.687Z,0.97
2023-04-29T05:21:01.430Z,0.37
2023-04-29T05:22:04.007Z,0.31
2023-04-29T05:23:06.590Z,0.30
2023-04-29T05:24:09.181Z,0.31
2023-04-29T05:25:11.732Z,0.78
2023-04-29T05:26:14.790Z,0.90
2023-04-29T05:27:17.249Z,0.40
2023-04-29T05:28:19.872Z,0.41
2023-04-29T05:29:22.401Z,0.56
2023-04-29T05:30:24.930Z,0.53
2023-04-29T05:31:27.610Z,0.52
2023-04-29T05:32:30.258Z,0.62
2023-04-29T05:33:32.894Z,0.42
2023-04-29T05:34:35.443Z,0.40
2023-04-29T05:35:38.029Z,0.43
2023-04-29T05:36:40.751Z,0.50
2023-04-29T05:37:43.327Z,0.58
2023-04-29T05:38:45.925Z,0.61
2023-04-29T05:39:48.476Z,0.51
2023-04-29T05:40:51.244Z,0.48
2023-04-29T05:41:53.794Z,0.39
2023-04-29T05:42:56.364Z,0.43
2023-04-29T05:43:58.943Z,0.49
2023-04-29T05:45:01.556Z,0.45
2023-04-29T05:46:04.174Z,0.36
2023-04-29T05:47:06.975Z,0.50
2023-04-29T05:48:09.552Z,0.47
2023-04-29T05:49:12.291Z,0.37
2023-04-29T05:50:14.939Z,0.29
2023-04-29T05:51:17.518Z,0.44
2023-04-29T05:52:20.056Z,0.56
2023-04-29T05:53:22.625Z,0.47
2023-04-29T05:54:25.210Z,0.33
2023-04-29T05:55:27.822Z,0.45
2023-04-29T05:56:30.678Z,0.36
2023-04-29T05:57:33.229Z,0.33
2023-04-29T05:58:35.817Z,0.20
2023-04-29T05:59:38.387Z,0.30
2023-04-29T06:00:41.023Z,0.49
2023-04-29T06:01:43.850Z,0.30
2023-04-29T06:02:57.633Z,0.30
2023-04-29T06:03:51.356Z,0.28
2023-04-29T06:04:54.767Z,0.25
2023-04-29T06:05:57.675Z,0.31
2023-04-29T06:07:00.789Z,0.25
2023-04-29T06:08:03.355Z,0.25
2023-04-29T06:09:13.418Z,0.34
2023-04-29T06:10:10.695Z,0.52
2023-04-29T06:11:13.250Z,0.30
2023-04-29T06:12:15.860Z,0.30
2023-04-29T06:13:18.662Z,0.37
2023-04-29T06:14:21.344Z,0.49
2023-04-29T06:15:23.892Z,0.40
2023-04-29T06:16:26.665Z,0.40
2023-04-29T06:17:29.364Z,0.56
2023-04-29T06:18:31.961Z,0.34
2023-04-29T06:19:34.528Z,0.50
2023-04-29T06:20:37.673Z,0.47
2023-04-29T06:21:40.343Z,1.59
2023-04-29T06:22:42.890Z,0.40
2023-04-29T06:23:45.679Z,0.41
2023-04-29T06:24:48.296Z,0.35
2023-04-29T06:25:52.943Z,0.47
2023-04-29T06:26:57.685Z,0.90
2023-04-29T06:28:00.290Z,0.67
2023-04-29T06:29:02.918Z,0.47
2023-04-29T06:30:05.683Z,0.50
2023-04-29T06:31:08.218Z,0.51
2023-04-29T06:32:10.829Z,0.40
2023-04-29T06:33:13.288Z,0.67
2023-04-29T06:34:15.874Z,0.50
2023-04-29T06:35:18.402Z,0.53
2023-04-29T06:36:21.057Z,0.83
2023-04-29T06:37:23.611Z,0.43
2023-04-29T06:38:26.177Z,0.48
2023-04-29T06:39:28.722Z,0.80
2023-04-29T06:40:31.390Z,0.56
2023-04-29T06:41:33.963Z,0.69
2023-04-29T06:42:36.538Z,0.51
2023-04-29T06:43:39.118Z,0.50
2023-04-29T06:44:41.671Z,0.65
2023-04-29T06:45:44.303Z,0.47
2023-04-29T06:46:47.336Z,0.44
2023-04-29T06:47:50.077Z,0.57
2023-04-29T06:48:52.784Z,0.41
2023-04-29T06:49:55.572Z,0.70
2023-04-29T06:50:58.734Z,0.49
2023-04-29T06:52:01.563Z,0.87
2023-04-29T06:53:04.134Z,0.50
2023-04-29T06:54:06.698Z,1.31
2023-04-29T06:55:09.248Z,0.60
2023-04-29T06:56:12.586Z,0.69
2023-04-29T06:57:15.685Z,0.43
2023-04-29T06:58:18.227Z,0.41
2023-04-29T06:59:20.783Z,0.53
2023-04-29T07:00:23.659Z,1.13
2023-04-29T07:01:26.250Z,0.30
2023-04-29T07:02:29.075Z,0.61
2023-04-29T07:03:32.029Z,0.59
2023-04-29T07:04:34.700Z,0.40
2023-04-29T07:05:37.407Z,0.56
2023-04-29T07:06:39.949Z,0.75
2023-04-29T07:07:42.571Z,0.67
2023-04-29T07:08:45.132Z,0.71
2023-04-29T07:09:47.684Z,0.77
2023-04-29T07:10:50.367Z,0.57
2023-04-29T07:11:52.932Z,0.67
2023-04-29T07:12:55.489Z,0.57
2023-04-29T07:13:58.260Z,0.71
2023-04-29T07:15:00.905Z,0.62
2023-04-29T07:16:03.505Z,0.73
2023-04-29T07:17:06.118Z,0.86
2023-04-29T07:18:08.884Z,0.73
2023-04-29T07:19:11.670Z,1.08
2023-04-29T07:20:14.365Z,0.79
2023-04-29T07:21:16.934Z,0.68
2023-04-29T07:22:19.511Z,0.61
2023-04-29T07:23:22.290Z,0.84
2023-04-29T07:24:24.848Z,0.93
2023-04-29T07:25:27.422Z,0.76
2023-04-29T07:26:30.066Z,0.98
2023-04-29T07:27:32.656Z,0.88
2023-04-29T07:28:35.842Z,0.78
2023-04-29T07:29:38.589Z,0.79
2023-04-29T07:30:41.786Z,1.02
2023-04-29T07:31:44.426Z,1.28
2023-04-29T07:32:47.061Z,1.24
2023-04-29T07:33:49.655Z,1.01
2023-04-29T07:34:52.395Z,0.89
2023-04-29T07:35:55.359Z,1.57
2023-04-29T07:36:58.032Z,1.05
2023-04-29T07:38:00.568Z,0.95
2023-04-29T07:39:03.098Z,1.92
2023-04-29T07:40:05.877Z,2.75
2023-04-29T07:41:08.634Z,1.91
2023-04-29T07:42:11.205Z,0.77
2023-04-29T07:43:13.788Z,0.84
2023-04-29T07:44:16.495Z,0.73
2023-04-29T07:45:19.080Z,1.37
2023-04-29T07:46:21.822Z,1.49
2023-04-29T07:47:24.443Z,1.06
2023-04-29T07:48:27.053Z,1.44
2023-04-29T07:49:29.607Z,1.56
2023-04-29T07:50:32.365Z,1.17
2023-04-29T07:51:34.959Z,1.27
2023-04-29T07:52:37.567Z,1.35
2023-04-29T07:53:40.123Z,1.63
2023-04-29T07:54:42.967Z,1.24
2023-04-29T07:55:45.497Z,1.49
2023-04-29T07:56:48.149Z,1.76
2023-04-29T07:57:50.697Z,1.11
2023-04-29T07:58:53.278Z,1.19
2023-04-29T07:59:55.728Z,1.32
2023-04-29T08:00:58.489Z,1.19
2023-04-29T08:02:01.028Z,1.19
2023-04-29T08:03:03.751Z,2.10
2023-04-29T08:04:06.538Z,1.85
2023-04-29T08:05:09.424Z,8.36
2023-04-29T08:06:12.815Z,15.59
2023-04-29T08:07:15.676Z,6.06
2023-04-29T08:08:18.343Z,4.20
2023-04-29T08:09:20.950Z,2.88
2023-04-29T08:10:23.720Z,5.56
2023-04-29T08:11:26.924Z,2.16
2023-04-29T08:12:29.733Z,4.81
2023-04-29T08:13:32.265Z,2.57
2023-04-29T08:14:34.866Z,2.21
2023-04-29T08:15:37.428Z,4.07
2023-04-29T08:16:40.711Z,5.62
2023-04-29T08:17:43.287Z,5.69
2023-04-29T08:18:46.002Z,4.81
2023-04-29T08:19:48.554Z,4.30
2023-04-29T08:20:51.628Z,2.34
2023-04-29T08:21:54.257Z,1.77
2023-04-29T08:22:56.820Z,1.70
2023-04-29T08:23:59.362Z,1.43
2023-04-29T08:25:01.920Z,1.85
2023-04-29T08:26:04.670Z,1.36
2023-04-29T08:27:07.237Z,1.61
2023-04-29T08:28:09.781Z,2.77
2023-04-29T08:29:12.383Z,2.32
2023-04-29T08:30:15.347Z,2.94
2023-04-29T08:31:18.327Z,2.38
2023-04-29T08:32:21.118Z,1.69
2023-04-29T08:33:23.645Z,1.82
2023-04-29T08:34:26.244Z,1.08
2023-04-29T08:35:29.102Z,1.17
2023-04-29T08:36:32.137Z,1.09
2023-04-29T08:37:34.683Z,1.00
2023-04-29T08:38:37.359Z,0.85
2023-04-29T08:39:39.909Z,0.83
2023-04-29T08:40:42.705Z,1.10
2023-04-29T08:41:45.260Z,1.05
2023-04-29T08:42:49.070Z,1.05
2023-04-29T08:43:51.900Z,1.52
2023-04-29T08:44:54.722Z,0.85
2023-04-29T08:45:57.596Z,0.76
2023-04-29T08:47:00.239Z,1.06
2023-04-29T08:48:02.930Z,2.36
2023-04-29T08:49:06.130Z,0.88
2023-04-29T08:50:09.182Z,1.43
2023-04-29T08:51:11.715Z,1.99
2023-04-29T08:52:14.265Z,1.13
2023-04-29T08:53:16.836Z,1.03
2023-04-29T08:54:19.848Z,0.97
2023-04-29T08:55:22.431Z,1.66
2023-04-29T08:56:27.408Z,0.84
2023-04-29T08:57:29.596Z,1.81
2023-04-29T08:58:32.195Z,1.23
2023-04-29T08:59:34.747Z,1.32
2023-04-29T09:00:37.607Z,1.37
2023-04-29T09:01:40.228Z,1.29
2023-04-29T09:02:42.785Z,0.95
2023-04-29T09:03:45.990Z,1.33
2023-04-29T09:04:48.730Z,1.04
2023-04-29T09:05:51.321Z,1.22
2023-04-29T09:06:54.277Z,1.19
2023-04-29T09:07:56.834Z,1.15
2023-04-29T09:08:59.469Z,0.96
2023-04-29T09:10:02.071Z,1.07
2023-04-29T09:11:04.640Z,0.86
2023-04-29T09:12:07.203Z,0.87
2023-04-29T09:13:09.780Z,0.80
2023-04-29T09:14:12.345Z,1.23
2023-04-29T09:15:14.906Z,1.22
2023-04-29T09:16:17.512Z,0.91
2023-04-29T09:17:20.066Z,1.22
2023-04-29T09:18:22.573Z,1.23
2023-04-29T09:19:25.169Z,1.11
2023-04-29T09:20:27.718Z,1.45
2023-04-29T09:21:30.274Z,1.85
2023-04-29T09:22:32.859Z,1.62
2023-04-29T09:23:35.406Z,1.46
2023-04-29T09:24:38.010Z,1.41
2023-04-29T09:25:40.587Z,1.54
2023-04-29T09:26:43.757Z,1.26
2023-04-29T09:27:46.470Z,1.12
2023-04-29T09:28:49.380Z,1.27
2023-04-29T09:29:51.902Z,1.64
2023-04-29T09:30:54.683Z,1.56
2023-04-29T09:31:57.309Z,1.20
2023-04-29T09:33:00.133Z,2.00
2023-04-29T09:34:02.802Z,2.91
2023-04-29T09:35:05.398Z,1.85
2023-04-29T09:36:08.064Z,1.57
2023-04-29T09:37:10.967Z,1.11
2023-04-29T09:38:13.565Z,1.35
2023-04-29T09:39:16.114Z,1.39
2023-04-29T09:40:18.827Z,1.42
2023-04-29T09:41:21.806Z,1.35
2023-04-29T09:42:24.552Z,1.43
2023-04-29T09:43:27.153Z,1.17
2023-04-29T09:44:32.972Z,1.41
2023-04-29T09:45:34.141Z,1.38
2023-04-29T09:46:36.912Z,1.07
2023-04-29T09:47:39.628Z,2.08
2023-04-29T09:48:42.176Z,1.85
2023-04-29T09:49:44.726Z,2.01
2023-04-29T09:50:47.586Z,1.81
2023-04-29T09:51:50.174Z,1.51
2023-04-29T09:52:52.825Z,1.80
2023-04-29T09:53:55.407Z,1.81
2023-04-29T09:54:57.958Z,1.34
2023-04-29T09:56:00.558Z,1.27
2023-04-29T09:57:03.102Z,2.00
2023-04-29T09:58:05.656Z,1.21
2023-04-29T09:59:08.462Z,1.04
2023-04-29T10:00:12.331Z,1.11
2023-04-29T10:01:14.937Z,1.40
2023-04-29T10:02:18.300Z,1.12
2023-04-29T10:03:21.319Z,2.46
2023-04-29T10:04:24.295Z,1.34
2023-04-29T10:05:27.162Z,1.40
2023-04-29T10:06:29.816Z,2.00
2023-04-29T10:07:32.392Z,3.69
2023-04-29T10:08:35.086Z,1.82
2023-04-29T10:09:37.883Z,1.10
2023-04-29T10:10:40.478Z,1.27
2023-04-29T10:11:43.041Z,1.88
2023-04-29T10:12:45.637Z,1.56
2023-04-29T10:13:48.196Z,1.13
2023-04-29T10:14:51.041Z,1.14
2023-04-29T10:15:53.913Z,4.97
2023-04-29T10:16:56.516Z,3.27
2023-04-29T10:17:59.074Z,1.53
2023-04-29T10:19:01.660Z,4.65
2023-04-29T10:20:04.261Z,1.71
2023-04-29T10:21:06.848Z,1.59
2023-04-29T10:22:09.391Z,1.19
2023-04-29T10:23:11.975Z,2.99
2023-04-29T10:24:15.128Z,2.00
2023-04-29T10:25:17.713Z,1.88
2023-04-29T10:26:20.271Z,1.65
2023-04-29T10:27:24.273Z,1.73
2023-04-29T10:28:27.130Z,2.95
2023-04-29T10:29:29.697Z,1.25
2023-04-29T10:30:32.464Z,0.91
2023-04-29T10:31:35.056Z,1.54
2023-04-29T10:32:49.932Z,1.26
2023-04-29T10:33:41.991Z,1.13
2023-04-29T10:34:44.667Z,0.88
2023-04-29T10:35:47.204Z,0.91
2023-04-29T10:36:49.944Z,0.99
2023-04-29T10:37:52.518Z,1.01
2023-04-29T10:38:55.061Z,1.79
2023-04-29T10:39:57.730Z,1.14
2023-04-29T10:41:00.319Z,1.09
2023-04-29T10:42:02.877Z,1.10
2023-04-29T10:43:05.467Z,1.45
2023-04-29T10:44:08.046Z,1.00
2023-04-29T10:45:10.631Z,1.50
2023-04-29T10:46:13.409Z,0.99
2023-04-29T10:47:15.955Z,1.37
2023-04-29T10:48:18.514Z,1.19
2023-04-29T10:49:21.784Z,1.88
2023-04-29T10:50:25.632Z,1.35
2023-04-29T10:51:28.195Z,1.49
